sensor_id;sensor_type;location;lat;lon;timestamp;P1;durP1;ratioP1;P2;durP2;ratioP2
19251;SDS011;9760;50.944;5.304;2022-11-20T00:01:08;33.00;;;14.43;;
19251;SDS011;9760;50.944;5.304;2022-11-20T00:03:34;29.30;;;13.37;;
19251;SDS011;9760;50.944;5.304;2022-11-20T00:06:00;34.13;;;14.90;;
19251;SDS011;9760;50.944;5.304;2022-11-20T00:08:26;29.90;;;13.80;;
19251;SDS011;9760;50.944;5.304;2022-11-20T00:10:52;30.57;;;14.27;;
19251;SDS011;9760;50.944;5.304;2022-11-20T00:13:18;35.73;;;14.50;;
19251;SDS011;9760;50.944;5.304;2022-11-20T00:15:43;28.20;;;13.23;;
19251;SDS011;9760;50.944;5.304;2022-11-20T00:18:09;29.00;;;14.37;;
19251;SDS011;9760;50.944;5.304;2022-11-20T00:20:34;29.03;;;14.00;;
19251;SDS011;9760;50.944;5.304;2022-11-20T00:23:00;29.63;;;13.73;;
19251;SDS011;9760;50.944;5.304;2022-11-20T00:25:26;30.57;;;14.07;;
19251;SDS011;9760;50.944;5.304;2022-11-20T00:27:51;31.50;;;14.50;;
19251;SDS011;9760;50.944;5.304;2022-11-20T00:30:17;33.80;;;15.53;;
19251;SDS011;9760;50.944;5.304;2022-11-20T00:32:43;33.20;;;14.37;;
19251;SDS011;9760;50.944;5.304;2022-11-20T00:35:08;31.57;;;14.00;;
19251;SDS011;9760;50.944;5.304;2022-11-20T00:37:34;37.60;;;15.43;;
19251;SDS011;9760;50.944;5.304;2022-11-20T00:40:00;30.43;;;14.73;;
19251;SDS011;9760;50.944;5.304;2022-11-20T00:42:25;30.90;;;13.77;;
19251;SDS011;9760;50.944;5.304;2022-11-20T00:44:51;32.87;;;15.43;;
19251;SDS011;9760;50.944;5.304;2022-11-20T00:47:16;29.90;;;13.60;;
19251;SDS011;9760;50.944;5.304;2022-11-20T00:49:42;33.67;;;13.93;;
19251;SDS011;9760;50.944;5.304;2022-11-20T00:52:08;30.83;;;14.97;;
19251;SDS011;9760;50.944;5.304;2022-11-20T00:54:33;35.50;;;13.77;;
19251;SDS011;9760;50.944;5.304;2022-11-20T00:56:59;32.20;;;15.67;;
19251;SDS011;9760;50.944;5.304;2022-11-20T00:59:26;35.63;;;15.40;;
19251;SDS011;9760;50.944;5.304;2022-11-20T01:01:52;33.87;;;14.27;;
19251;SDS011;9760;50.944;5.304;2022-11-20T01:04:17;35.13;;;15.27;;
19251;SDS011;9760;50.944;5.304;2022-11-20T01:06:43;33.63;;;14.50;;
19251;SDS011;9760;50.944;5.304;2022-11-20T01:09:12;33.50;;;15.20;;
19251;SDS011;9760;50.944;5.304;2022-11-20T01:11:40;32.00;;;15.03;;
19251;SDS011;9760;50.944;5.304;2022-11-20T01:14:09;29.43;;;14.77;;
19251;SDS011;9760;50.944;5.304;2022-11-20T01:16:40;32.80;;;14.87;;
19251;SDS011;9760;50.944;5.304;2022-11-20T01:19:12;35.93;;;14.77;;
19251;SDS011;9760;50.944;5.304;2022-11-20T01:21:40;30.50;;;14.47;;
19251;SDS011;9760;50.944;5.304;2022-11-20T01:24:07;33.93;;;14.33;;
19251;SDS011;9760;50.944;5.304;2022-11-20T01:26:36;37.67;;;14.97;;
19251;SDS011;9760;50.944;5.304;2022-11-20T01:29:03;28.90;;;14.17;;
19251;SDS011;9760;50.944;5.304;2022-11-20T01:31:30;32.87;;;15.07;;
19251;SDS011;9760;50.944;5.304;2022-11-20T01:33:58;32.93;;;13.87;;
19251;SDS011;9760;50.944;5.304;2022-11-20T01:36:43;39.27;;;15.40;;
19251;SDS011;9760;50.944;5.304;2022-11-20T01:39:11;31.27;;;14.47;;
19251;SDS011;9760;50.944;5.304;2022-11-20T01:41:39;33.30;;;14.87;;
19251;SDS011;9760;50.944;5.304;2022-11-20T01:44:46;28.67;;;13.43;;
19251;SDS011;9760;50.944;5.304;2022-11-20T01:47:16;32.23;;;14.93;;
19251;SDS011;9760;50.944;5.304;2022-11-20T01:49:48;34.00;;;14.00;;
19251;SDS011;9760;50.944;5.304;2022-11-20T01:53:03;33.63;;;14.97;;
19251;SDS011;9760;50.944;5.304;2022-11-20T01:55:15;30.40;;;14.03;;
19251;SDS011;9760;50.944;5.304;2022-11-20T01:57:46;36.30;;;14.73;;
19251;SDS011;9760;50.944;5.304;2022-11-20T02:00:14;34.40;;;14.87;;
19251;SDS011;9760;50.944;5.304;2022-11-20T02:02:44;34.07;;;14.27;;
19251;SDS011;9760;50.944;5.304;2022-11-20T02:05:18;37.00;;;14.37;;
19251;SDS011;9760;50.944;5.304;2022-11-20T02:07:52;29.30;;;13.87;;
19251;SDS011;9760;50.944;5.304;2022-11-20T02:10:19;33.53;;;14.40;;
19251;SDS011;9760;50.944;5.304;2022-11-20T02:12:45;33.37;;;15.27;;
19251;SDS011;9760;50.944;5.304;2022-11-20T02:15:30;33.40;;;14.70;;
19251;SDS011;9760;50.944;5.304;2022-11-20T02:17:58;32.97;;;14.80;;
19251;SDS011;9760;50.944;5.304;2022-11-20T02:20:23;29.87;;;14.13;;
19251;SDS011;9760;50.944;5.304;2022-11-20T02:23:12;30.93;;;14.13;;
19251;SDS011;9760;50.944;5.304;2022-11-20T02:25:44;38.07;;;14.93;;
19251;SDS011;9760;50.944;5.304;2022-11-20T02:28:12;27.47;;;13.90;;
19251;SDS011;9760;50.944;5.304;2022-11-20T02:30:37;32.93;;;15.20;;
19251;SDS011;9760;50.944;5.304;2022-11-20T02:33:03;30.83;;;14.53;;
19251;SDS011;9760;50.944;5.304;2022-11-20T02:37:55;30.43;;;14.33;;
19251;SDS011;9760;50.944;5.304;2022-11-20T02:40:24;35.57;;;14.77;;
19251;SDS011;9760;50.944;5.304;2022-11-20T02:42:53;30.80;;;14.07;;
19251;SDS011;9760;50.944;5.304;2022-11-20T02:45:19;32.07;;;14.77;;
19251;SDS011;9760;50.944;5.304;2022-11-20T02:47:45;30.20;;;15.17;;
19251;SDS011;9760;50.944;5.304;2022-11-20T02:50:11;30.73;;;14.10;;
19251;SDS011;9760;50.944;5.304;2022-11-20T02:52:37;39.20;;;15.63;;
19251;SDS011;9760;50.944;5.304;2022-11-20T02:55:03;34.90;;;14.23;;
19251;SDS011;9760;50.944;5.304;2022-11-20T02:57:29;30.90;;;14.10;;
19251;SDS011;9760;50.944;5.304;2022-11-20T02:59:54;30.57;;;14.60;;
19251;SDS011;9760;50.944;5.304;2022-11-20T03:02:20;32.63;;;15.20;;
19251;SDS011;9760;50.944;5.304;2022-11-20T03:04:46;31.60;;;14.50;;
19251;SDS011;9760;50.944;5.304;2022-11-20T03:07:12;29.47;;;14.30;;
19251;SDS011;9760;50.944;5.304;2022-11-20T03:09:37;30.23;;;14.63;;
19251;SDS011;9760;50.944;5.304;2022-11-20T03:12:03;32.67;;;14.47;;
19251;SDS011;9760;50.944;5.304;2022-11-20T03:14:29;30.77;;;13.90;;
19251;SDS011;9760;50.944;5.304;2022-11-20T03:16:55;35.27;;;14.37;;
19251;SDS011;9760;50.944;5.304;2022-11-20T03:19:21;31.77;;;13.83;;
19251;SDS011;9760;50.944;5.304;2022-11-20T03:21:47;33.87;;;15.67;;
19251;SDS011;9760;50.944;5.304;2022-11-20T03:24:12;34.03;;;14.70;;
19251;SDS011;9760;50.944;5.304;2022-11-20T03:26:39;33.13;;;15.10;;
19251;SDS011;9760;50.944;5.304;2022-11-20T03:29:05;35.87;;;15.00;;
19251;SDS011;9760;50.944;5.304;2022-11-20T03:31:38;32.53;;;14.80;;
19251;SDS011;9760;50.944;5.304;2022-11-20T03:34:05;35.10;;;14.87;;
19251;SDS011;9760;50.944;5.304;2022-11-20T03:36:32;31.30;;;14.37;;
19251;SDS011;9760;50.944;5.304;2022-11-20T03:38:58;32.97;;;15.10;;
19251;SDS011;9760;50.944;5.304;2022-11-20T03:41:27;34.07;;;14.90;;
19251;SDS011;9760;50.944;5.304;2022-11-20T03:43:57;30.40;;;14.27;;
19251;SDS011;9760;50.944;5.304;2022-11-20T03:46:24;35.07;;;15.53;;
19251;SDS011;9760;50.944;5.304;2022-11-20T03:48:50;34.90;;;14.87;;
19251;SDS011;9760;50.944;5.304;2022-11-20T03:51:17;31.67;;;14.07;;
19251;SDS011;9760;50.944;5.304;2022-11-20T03:53:45;31.67;;;13.83;;
19251;SDS011;9760;50.944;5.304;2022-11-20T03:56:12;32.33;;;14.13;;
19251;SDS011;9760;50.944;5.304;2022-11-20T03:58:39;38.70;;;14.53;;
19251;SDS011;9760;50.944;5.304;2022-11-20T04:01:06;31.03;;;14.33;;
19251;SDS011;9760;50.944;5.304;2022-11-20T04:03:34;32.37;;;14.40;;
19251;SDS011;9760;50.944;5.304;2022-11-20T04:06:05;33.63;;;14.17;;
19251;SDS011;9760;50.944;5.304;2022-11-20T04:08:33;32.63;;;14.73;;
19251;SDS011;9760;50.944;5.304;2022-11-20T04:11:15;34.20;;;14.83;;
19251;SDS011;9760;50.944;5.304;2022-11-20T04:13:47;31.90;;;14.83;;
19251;SDS011;9760;50.944;5.304;2022-11-20T04:16:15;32.33;;;14.30;;
19251;SDS011;9760;50.944;5.304;2022-11-20T04:18:41;33.47;;;15.67;;
19251;SDS011;9760;50.944;5.304;2022-11-20T04:21:08;35.80;;;15.97;;
19251;SDS011;9760;50.944;5.304;2022-11-20T04:23:34;37.77;;;15.60;;
19251;SDS011;9760;50.944;5.304;2022-11-20T04:26:03;37.07;;;14.83;;
19251;SDS011;9760;50.944;5.304;2022-11-20T04:28:30;32.23;;;14.17;;
19251;SDS011;9760;50.944;5.304;2022-11-20T04:31:01;42.47;;;16.00;;
19251;SDS011;9760;50.944;5.304;2022-11-20T04:33:47;37.40;;;16.87;;
19251;SDS011;9760;50.944;5.304;2022-11-20T04:36:17;39.80;;;16.67;;
19251;SDS011;9760;50.944;5.304;2022-11-20T04:38:50;45.97;;;17.73;;
19251;SDS011;9760;50.944;5.304;2022-11-20T04:41:18;47.97;;;17.47;;
19251;SDS011;9760;50.944;5.304;2022-11-20T04:43:48;49.77;;;18.13;;
19251;SDS011;9760;50.944;5.304;2022-11-20T04:46:15;54.77;;;19.60;;
19251;SDS011;9760;50.944;5.304;2022-11-20T04:48:44;60.53;;;19.20;;
19251;SDS011;9760;50.944;5.304;2022-11-20T04:51:10;47.97;;;18.30;;
19251;SDS011;9760;50.944;5.304;2022-11-20T04:53:36;50.43;;;19.57;;
19251;SDS011;9760;50.944;5.304;2022-11-20T04:56:03;46.97;;;19.40;;
19251;SDS011;9760;50.944;5.304;2022-11-20T04:58:30;52.20;;;20.20;;
19251;SDS011;9760;50.944;5.304;2022-11-20T05:01:37;49.27;;;19.67;;
19251;SDS011;9760;50.944;5.304;2022-11-20T05:03:46;57.67;;;19.23;;
19251;SDS011;9760;50.944;5.304;2022-11-20T05:06:13;47.67;;;19.27;;
19251;SDS011;9760;50.944;5.304;2022-11-20T05:08:39;50.23;;;21.30;;
19251;SDS011;9760;50.944;5.304;2022-11-20T05:11:06;48.60;;;19.83;;
19251;SDS011;9760;50.944;5.304;2022-11-20T05:13:33;54.33;;;19.53;;
19251;SDS011;9760;50.944;5.304;2022-11-20T05:16:03;53.17;;;20.30;;
19251;SDS011;9760;50.944;5.304;2022-11-20T05:18:30;54.57;;;19.73;;
19251;SDS011;9760;50.944;5.304;2022-11-20T05:20:56;49.03;;;19.50;;
19251;SDS011;9760;50.944;5.304;2022-11-20T05:23:23;47.80;;;18.63;;
19251;SDS011;9760;50.944;5.304;2022-11-20T05:25:51;42.63;;;19.07;;
19251;SDS011;9760;50.944;5.304;2022-11-20T05:28:17;54.57;;;20.70;;
19251;SDS011;9760;50.944;5.304;2022-11-20T05:30:43;48.97;;;20.10;;
19251;SDS011;9760;50.944;5.304;2022-11-20T05:33:09;44.03;;;18.27;;
19251;SDS011;9760;50.944;5.304;2022-11-20T05:35:34;47.40;;;19.33;;
19251;SDS011;9760;50.944;5.304;2022-11-20T05:38:00;62.80;;;20.37;;
19251;SDS011;9760;50.944;5.304;2022-11-20T05:40:25;51.93;;;19.10;;
19251;SDS011;9760;50.944;5.304;2022-11-20T05:42:51;46.00;;;19.33;;
19251;SDS011;9760;50.944;5.304;2022-11-20T05:45:17;52.13;;;20.30;;
19251;SDS011;9760;50.944;5.304;2022-11-20T05:47:42;51.43;;;18.97;;
19251;SDS011;9760;50.944;5.304;2022-11-20T05:50:08;53.27;;;18.90;;
19251;SDS011;9760;50.944;5.304;2022-11-20T05:52:34;49.47;;;19.50;;
19251;SDS011;9760;50.944;5.304;2022-11-20T05:54:59;49.70;;;19.40;;
19251;SDS011;9760;50.944;5.304;2022-11-20T05:57:25;48.97;;;19.93;;
19251;SDS011;9760;50.944;5.304;2022-11-20T05:59:50;48.23;;;20.60;;
19251;SDS011;9760;50.944;5.304;2022-11-20T06:02:16;57.43;;;20.47;;
19251;SDS011;9760;50.944;5.304;2022-11-20T06:04:42;50.03;;;19.83;;
19251;SDS011;9760;50.944;5.304;2022-11-20T06:07:07;48.40;;;19.17;;
19251;SDS011;9760;50.944;5.304;2022-11-20T06:09:33;52.33;;;21.10;;
19251;SDS011;9760;50.944;5.304;2022-11-20T06:11:59;57.73;;;20.70;;
19251;SDS011;9760;50.944;5.304;2022-11-20T06:14:24;51.70;;;19.57;;
19251;SDS011;9760;50.944;5.304;2022-11-20T06:16:50;55.50;;;21.33;;
19251;SDS011;9760;50.944;5.304;2022-11-20T06:19:15;51.17;;;20.87;;
19251;SDS011;9760;50.944;5.304;2022-11-20T06:21:41;56.13;;;20.77;;
19251;SDS011;9760;50.944;5.304;2022-11-20T06:24:08;60.00;;;21.80;;
19251;SDS011;9760;50.944;5.304;2022-11-20T06:26:35;55.83;;;20.80;;
19251;SDS011;9760;50.944;5.304;2022-11-20T06:29:01;51.93;;;20.17;;
19251;SDS011;9760;50.944;5.304;2022-11-20T06:31:27;54.63;;;20.00;;
19251;SDS011;9760;50.944;5.304;2022-11-20T06:33:52;54.93;;;20.53;;
19251;SDS011;9760;50.944;5.304;2022-11-20T06:36:19;56.70;;;21.57;;
19251;SDS011;9760;50.944;5.304;2022-11-20T06:38:46;53.80;;;20.83;;
19251;SDS011;9760;50.944;5.304;2022-11-20T06:41:13;54.57;;;20.23;;
19251;SDS011;9760;50.944;5.304;2022-11-20T06:43:41;61.00;;;21.70;;
19251;SDS011;9760;50.944;5.304;2022-11-20T06:46:09;54.60;;;21.13;;
19251;SDS011;9760;50.944;5.304;2022-11-20T06:48:36;56.20;;;21.80;;
19251;SDS011;9760;50.944;5.304;2022-11-20T06:51:05;56.00;;;22.30;;
19251;SDS011;9760;50.944;5.304;2022-11-20T06:53:34;52.77;;;20.03;;
19251;SDS011;9760;50.944;5.304;2022-11-20T06:56:00;53.37;;;20.60;;
19251;SDS011;9760;50.944;5.304;2022-11-20T06:58:26;55.57;;;20.77;;
19251;SDS011;9760;50.944;5.304;2022-11-20T07:00:53;59.63;;;21.07;;
19251;SDS011;9760;50.944;5.304;2022-11-20T07:03:19;56.73;;;21.57;;
19251;SDS011;9760;50.944;5.304;2022-11-20T07:05:45;59.40;;;22.40;;
19251;SDS011;9760;50.944;5.304;2022-11-20T07:08:11;57.30;;;22.00;;
19251;SDS011;9760;50.944;5.304;2022-11-20T07:10:37;59.93;;;23.30;;
19251;SDS011;9760;50.944;5.304;2022-11-20T07:13:03;54.93;;;21.13;;
19251;SDS011;9760;50.944;5.304;2022-11-20T07:15:28;53.57;;;20.50;;
19251;SDS011;9760;50.944;5.304;2022-11-20T07:17:54;59.37;;;22.27;;
19251;SDS011;9760;50.944;5.304;2022-11-20T07:20:20;48.83;;;20.40;;
19251;SDS011;9760;50.944;5.304;2022-11-20T07:22:46;63.10;;;22.23;;
19251;SDS011;9760;50.944;5.304;2022-11-20T07:25:11;54.77;;;22.30;;
19251;SDS011;9760;50.944;5.304;2022-11-20T07:27:37;53.67;;;21.63;;
19251;SDS011;9760;50.944;5.304;2022-11-20T07:30:03;62.60;;;23.90;;
19251;SDS011;9760;50.944;5.304;2022-11-20T07:32:29;60.37;;;22.40;;
19251;SDS011;9760;50.944;5.304;2022-11-20T07:34:55;52.73;;;20.47;;
19251;SDS011;9760;50.944;5.304;2022-11-20T07:37:20;59.97;;;21.33;;
19251;SDS011;9760;50.944;5.304;2022-11-20T07:39:46;58.60;;;22.23;;
19251;SDS011;9760;50.944;5.304;2022-11-20T07:42:12;58.27;;;21.20;;
19251;SDS011;9760;50.944;5.304;2022-11-20T07:44:38;54.10;;;20.90;;
19251;SDS011;9760;50.944;5.304;2022-11-20T07:47:03;55.03;;;21.77;;
19251;SDS011;9760;50.944;5.304;2022-11-20T07:49:29;62.03;;;22.20;;
19251;SDS011;9760;50.944;5.304;2022-11-20T07:51:55;55.63;;;20.23;;
19251;SDS011;9760;50.944;5.304;2022-11-20T07:54:21;54.93;;;19.93;;
19251;SDS011;9760;50.944;5.304;2022-11-20T07:56:50;53.83;;;20.93;;
19251;SDS011;9760;50.944;5.304;2022-11-20T07:59:16;58.73;;;21.40;;
19251;SDS011;9760;50.944;5.304;2022-11-20T08:01:42;56.53;;;20.57;;
19251;SDS011;9760;50.944;5.304;2022-11-20T08:04:08;54.77;;;19.97;;
19251;SDS011;9760;50.944;5.304;2022-11-20T08:06:35;49.63;;;19.53;;
19251;SDS011;9760;50.944;5.304;2022-11-20T08:09:01;49.20;;;19.20;;
19251;SDS011;9760;50.944;5.304;2022-11-20T08:11:27;52.83;;;20.60;;
19251;SDS011;9760;50.944;5.304;2022-11-20T08:14:11;49.00;;;20.00;;
19251;SDS011;9760;50.944;5.304;2022-11-20T08:16:40;55.20;;;20.20;;
19251;SDS011;9760;50.944;5.304;2022-11-20T08:19:11;59.30;;;20.13;;
19251;SDS011;9760;50.944;5.304;2022-11-20T08:21:37;54.50;;;21.60;;
19251;SDS011;9760;50.944;5.304;2022-11-20T08:24:03;52.80;;;19.70;;
19251;SDS011;9760;50.944;5.304;2022-11-20T08:26:29;47.70;;;19.87;;
19251;SDS011;9760;50.944;5.304;2022-11-20T08:28:56;51.37;;;20.90;;
19251;SDS011;9760;50.944;5.304;2022-11-20T08:31:23;52.23;;;21.30;;
19251;SDS011;9760;50.944;5.304;2022-11-20T08:33:49;53.63;;;20.53;;
19251;SDS011;9760;50.944;5.304;2022-11-20T08:36:15;52.33;;;21.00;;
19251;SDS011;9760;50.944;5.304;2022-11-20T08:38:41;52.63;;;20.03;;
19251;SDS011;9760;50.944;5.304;2022-11-20T08:41:11;56.73;;;20.93;;
19251;SDS011;9760;50.944;5.304;2022-11-20T08:44:10;58.40;;;21.47;;
19251;SDS011;9760;50.944;5.304;2022-11-20T08:46:39;54.83;;;20.60;;
19251;SDS011;9760;50.944;5.304;2022-11-20T08:49:07;54.27;;;19.83;;
19251;SDS011;9760;50.944;5.304;2022-11-20T08:51:34;55.27;;;21.40;;
19251;SDS011;9760;50.944;5.304;2022-11-20T08:54:00;63.10;;;21.17;;
19251;SDS011;9760;50.944;5.304;2022-11-20T08:56:26;60.97;;;21.27;;
19251;SDS011;9760;50.944;5.304;2022-11-20T08:58:52;61.77;;;21.67;;
19251;SDS011;9760;50.944;5.304;2022-11-20T09:01:21;56.93;;;21.07;;
19251;SDS011;9760;50.944;5.304;2022-11-20T09:03:48;58.63;;;20.97;;
19251;SDS011;9760;50.944;5.304;2022-11-20T09:06:14;55.57;;;20.73;;
19251;SDS011;9760;50.944;5.304;2022-11-20T09:08:40;54.03;;;20.37;;
19251;SDS011;9760;50.944;5.304;2022-11-20T09:11:06;59.90;;;21.17;;
19251;SDS011;9760;50.944;5.304;2022-11-20T09:13:33;57.93;;;20.57;;
19251;SDS011;9760;50.944;5.304;2022-11-20T09:16:02;62.73;;;22.27;;
19251;SDS011;9760;50.944;5.304;2022-11-20T09:18:33;53.23;;;21.23;;
19251;SDS011;9760;50.944;5.304;2022-11-20T09:21:02;57.20;;;20.40;;
19251;SDS011;9760;50.944;5.304;2022-11-20T09:23:34;54.60;;;19.73;;
19251;SDS011;9760;50.944;5.304;2022-11-20T09:26:04;58.43;;;21.27;;
19251;SDS011;9760;50.944;5.304;2022-11-20T09:28:31;59.13;;;21.00;;
19251;SDS011;9760;50.944;5.304;2022-11-20T09:30:58;49.10;;;19.77;;
19251;SDS011;9760;50.944;5.304;2022-11-20T09:33:25;60.27;;;21.10;;
19251;SDS011;9760;50.944;5.304;2022-11-20T09:35:51;53.27;;;20.60;;
19251;SDS011;9760;50.944;5.304;2022-11-20T09:38:17;48.97;;;20.67;;
19251;SDS011;9760;50.944;5.304;2022-11-20T09:40:45;62.07;;;21.57;;
19251;SDS011;9760;50.944;5.304;2022-11-20T09:43:18;65.63;;;21.77;;
19251;SDS011;9760;50.944;5.304;2022-11-20T09:45:51;59.30;;;21.63;;
19251;SDS011;9760;50.944;5.304;2022-11-20T09:48:28;65.73;;;20.60;;
19251;SDS011;9760;50.944;5.304;2022-11-20T09:56:37;58.53;;;20.83;;
19251;SDS011;9760;50.944;5.304;2022-11-20T09:59:07;64.97;;;21.83;;
19251;SDS011;9760;50.944;5.304;2022-11-20T10:01:55;59.90;;;20.23;;
19251;SDS011;9760;50.944;5.304;2022-11-20T10:04:23;65.80;;;20.87;;
19251;SDS011;9760;50.944;5.304;2022-11-20T10:07:02;70.93;;;21.77;;
19251;SDS011;9760;50.944;5.304;2022-11-20T10:09:53;71.50;;;22.03;;
19251;SDS011;9760;50.944;5.304;2022-11-20T10:15:22;65.37;;;21.33;;
19251;SDS011;9760;50.944;5.304;2022-11-20T10:21:04;68.27;;;20.93;;
19251;SDS011;9760;50.944;5.304;2022-11-20T10:26:24;71.43;;;23.10;;
19251;SDS011;9760;50.944;5.304;2022-11-20T10:31:40;69.27;;;21.47;;
19251;SDS011;9760;50.944;5.304;2022-11-20T10:37:02;64.90;;;20.90;;
19251;SDS011;9760;50.944;5.304;2022-11-20T10:42:16;76.80;;;22.77;;
19251;SDS011;9760;50.944;5.304;2022-11-20T10:44:52;68.67;;;22.07;;
19251;SDS011;9760;50.944;5.304;2022-11-20T10:47:27;68.37;;;21.37;;
19251;SDS011;9760;50.944;5.304;2022-11-20T10:49:55;62.53;;;20.23;;
19251;SDS011;9760;50.944;5.304;2022-11-20T11:00:38;74.80;;;22.03;;
19251;SDS011;9760;50.944;5.304;2022-11-20T11:03:07;64.03;;;20.97;;
19251;SDS011;9760;50.944;5.304;2022-11-20T11:08:19;70.77;;;22.03;;
19251;SDS011;9760;50.944;5.304;2022-11-20T11:10:53;68.57;;;21.77;;
19251;SDS011;9760;50.944;5.304;2022-11-20T11:13:27;75.67;;;22.67;;
19251;SDS011;9760;50.944;5.304;2022-11-20T11:15:54;75.80;;;22.93;;
19251;SDS011;9760;50.944;5.304;2022-11-20T11:18:30;72.10;;;22.43;;
19251;SDS011;9760;50.944;5.304;2022-11-20T11:20:59;67.37;;;22.17;;
19251;SDS011;9760;50.944;5.304;2022-11-20T11:23:40;66.07;;;20.60;;
19251;SDS011;9760;50.944;5.304;2022-11-20T11:26:07;66.27;;;23.10;;
19251;SDS011;9760;50.944;5.304;2022-11-20T11:28:53;82.77;;;23.90;;
19251;SDS011;9760;50.944;5.304;2022-11-20T11:31:26;64.90;;;20.53;;
19251;SDS011;9760;50.944;5.304;2022-11-20T11:34:04;76.07;;;21.67;;
19251;SDS011;9760;50.944;5.304;2022-11-20T11:36:30;59.90;;;19.90;;
19251;SDS011;9760;50.944;5.304;2022-11-20T11:39:01;63.20;;;22.47;;
19251;SDS011;9760;50.944;5.304;2022-11-20T11:41:33;64.20;;;21.37;;
19251;SDS011;9760;50.944;5.304;2022-11-20T11:44:21;49.97;;;18.20;;
19251;SDS011;9760;50.944;5.304;2022-11-20T11:47:24;66.97;;;21.07;;
19251;SDS011;9760;50.944;5.304;2022-11-20T11:52:48;58.27;;;19.10;;
19251;SDS011;9760;50.944;5.304;2022-11-20T11:55:29;54.27;;;17.83;;
19251;SDS011;9760;50.944;5.304;2022-11-20T12:00:39;56.73;;;17.97;;
19251;SDS011;9760;50.944;5.304;2022-11-20T12:03:14;50.20;;;17.93;;
19251;SDS011;9760;50.944;5.304;2022-11-20T12:05:47;58.10;;;18.30;;
19251;SDS011;9760;50.944;5.304;2022-11-20T12:11:13;45.60;;;17.10;;
19251;SDS011;9760;50.944;5.304;2022-11-20T12:13:53;48.33;;;17.07;;
19251;SDS011;9760;50.944;5.304;2022-11-20T12:16:38;49.87;;;16.60;;
19251;SDS011;9760;50.944;5.304;2022-11-20T12:19:07;48.10;;;16.87;;
19251;SDS011;9760;50.944;5.304;2022-11-20T12:44:22;11.40;;;3.10;;
19251;SDS011;9760;50.944;5.304;2022-11-20T13:01:48;4.97;;;2.47;;
19251;SDS011;9760;50.944;5.304;2022-11-20T13:07:01;7.17;;;1.93;;
19251;SDS011;9760;50.944;5.304;2022-11-20T13:09:29;5.63;;;2.03;;
19251;SDS011;9760;50.944;5.304;2022-11-20T13:12:03;8.27;;;1.97;;
19251;SDS011;9760;50.944;5.304;2022-11-20T13:19:50;2.97;;;1.27;;
19251;SDS011;9760;50.944;5.304;2022-11-20T13:22:42;6.17;;;1.50;;
19251;SDS011;9760;50.944;5.304;2022-11-20T13:30:36;5.07;;;1.50;;
19251;SDS011;9760;50.944;5.304;2022-11-20T13:38:23;10.23;;;1.90;;
19251;SDS011;9760;50.944;5.304;2022-11-20T13:46:03;3.67;;;1.53;;
19251;SDS011;9760;50.944;5.304;2022-11-20T13:48:42;3.30;;;1.60;;
19251;SDS011;9760;50.944;5.304;2022-11-20T13:51:12;10.47;;;1.70;;
19251;SDS011;9760;50.944;5.304;2022-11-20T13:54:10;7.93;;;1.93;;
19251;SDS011;9760;50.944;5.304;2022-11-20T14:01:58;9.67;;;2.07;;
19251;SDS011;9760;50.944;5.304;2022-11-20T14:04:27;8.47;;;2.30;;
19251;SDS011;9760;50.944;5.304;2022-11-20T14:06:57;8.93;;;2.10;;
19251;SDS011;9760;50.944;5.304;2022-11-20T14:09:27;9.53;;;2.80;;
19251;SDS011;9760;50.944;5.304;2022-11-20T14:11:54;6.10;;;2.27;;
19251;SDS011;9760;50.944;5.304;2022-11-20T14:14:27;15.20;;;4.30;;
19251;SDS011;9760;50.944;5.304;2022-11-20T14:17:17;8.40;;;2.67;;
19251;SDS011;9760;50.944;5.304;2022-11-20T14:19:48;9.70;;;2.63;;
19251;SDS011;9760;50.944;5.304;2022-11-20T14:22:23;9.57;;;2.50;;
19251;SDS011;9760;50.944;5.304;2022-11-20T14:27:37;13.33;;;3.43;;
19251;SDS011;9760;50.944;5.304;2022-11-20T14:30:04;9.33;;;2.93;;
19251;SDS011;9760;50.944;5.304;2022-11-20T14:32:31;12.27;;;3.27;;
19251;SDS011;9760;50.944;5.304;2022-11-20T14:35:02;12.77;;;2.60;;
19251;SDS011;9760;50.944;5.304;2022-11-20T14:37:33;12.57;;;2.93;;
19251;SDS011;9760;50.944;5.304;2022-11-20T14:40:02;13.63;;;3.00;;
19251;SDS011;9760;50.944;5.304;2022-11-20T14:42:29;8.20;;;3.40;;
19251;SDS011;9760;50.944;5.304;2022-11-20T14:44:56;11.20;;;2.40;;
19251;SDS011;9760;50.944;5.304;2022-11-20T14:47:24;21.63;;;3.53;;
19251;SDS011;9760;50.944;5.304;2022-11-20T14:49:54;16.13;;;3.80;;
19251;SDS011;9760;50.944;5.304;2022-11-20T14:52:22;10.30;;;3.53;;
19251;SDS011;9760;50.944;5.304;2022-11-20T14:54:53;8.70;;;3.40;;
19251;SDS011;9760;50.944;5.304;2022-11-20T14:57:27;7.33;;;3.67;;
19251;SDS011;9760;50.944;5.304;2022-11-20T15:00:17;16.60;;;3.63;;
19251;SDS011;9760;50.944;5.304;2022-11-20T15:02:45;12.03;;;3.63;;
19251;SDS011;9760;50.944;5.304;2022-11-20T15:05:14;8.73;;;3.53;;
19251;SDS011;9760;50.944;5.304;2022-11-20T15:07:46;11.07;;;3.57;;
19251;SDS011;9760;50.944;5.304;2022-11-20T15:12:53;5.90;;;3.67;;
19251;SDS011;9760;50.944;5.304;2022-11-20T15:15:26;7.33;;;3.57;;
19251;SDS011;9760;50.944;5.304;2022-11-20T15:18:04;14.27;;;4.27;;
19251;SDS011;9760;50.944;5.304;2022-11-20T15:20:35;11.60;;;4.60;;
19251;SDS011;9760;50.944;5.304;2022-11-20T15:23:01;7.00;;;4.07;;
19251;SDS011;9760;50.944;5.304;2022-11-20T15:25:26;9.93;;;4.07;;
19251;SDS011;9760;50.944;5.304;2022-11-20T15:27:54;8.90;;;4.07;;
19251;SDS011;9760;50.944;5.304;2022-11-20T15:30:21;10.87;;;4.10;;
19251;SDS011;9760;50.944;5.304;2022-11-20T15:32:47;10.53;;;4.30;;
19251;SDS011;9760;50.944;5.304;2022-11-20T15:35:14;14.33;;;4.47;;
19251;SDS011;9760;50.944;5.304;2022-11-20T15:37:41;9.03;;;4.10;;
19251;SDS011;9760;50.944;5.304;2022-11-20T15:40:07;7.13;;;3.70;;
19251;SDS011;9760;50.944;5.304;2022-11-20T15:42:34;7.03;;;3.50;;
19251;SDS011;9760;50.944;5.304;2022-11-20T15:45:00;10.70;;;4.17;;
19251;SDS011;9760;50.944;5.304;2022-11-20T15:47:32;12.33;;;4.43;;
19251;SDS011;9760;50.944;5.304;2022-11-20T15:50:00;7.90;;;3.53;;
19251;SDS011;9760;50.944;5.304;2022-11-20T15:52:26;9.13;;;3.70;;
19251;SDS011;9760;50.944;5.304;2022-11-20T15:54:51;7.30;;;3.60;;
19251;SDS011;9760;50.944;5.304;2022-11-20T15:57:17;8.67;;;3.40;;
19251;SDS011;9760;50.944;5.304;2022-11-20T15:59:43;5.00;;;2.90;;
19251;SDS011;9760;50.944;5.304;2022-11-20T16:02:09;8.77;;;2.77;;
19251;SDS011;9760;50.944;5.304;2022-11-20T16:04:35;6.20;;;3.20;;
19251;SDS011;9760;50.944;5.304;2022-11-20T16:07:01;4.80;;;3.10;;
19251;SDS011;9760;50.944;5.304;2022-11-20T16:09:27;10.70;;;3.47;;
19251;SDS011;9760;50.944;5.304;2022-11-20T16:11:53;12.40;;;3.20;;
19251;SDS011;9760;50.944;5.304;2022-11-20T16:14:19;3.57;;;2.87;;
19251;SDS011;9760;50.944;5.304;2022-11-20T16:17:03;12.20;;;5.70;;
19251;SDS011;9760;50.944;5.304;2022-11-20T16:19:28;5.73;;;3.23;;
19251;SDS011;9760;50.944;5.304;2022-11-20T16:21:54;5.90;;;3.20;;
19251;SDS011;9760;50.944;5.304;2022-11-20T16:24:20;8.23;;;3.90;;
19251;SDS011;9760;50.944;5.304;2022-11-20T16:26:45;10.53;;;4.33;;
19251;SDS011;9760;50.944;5.304;2022-11-20T16:29:11;5.60;;;4.03;;
19251;SDS011;9760;50.944;5.304;2022-11-20T16:31:37;6.93;;;4.03;;
19251;SDS011;9760;50.944;5.304;2022-11-20T16:34:04;9.03;;;4.40;;
19251;SDS011;9760;50.944;5.304;2022-11-20T16:36:31;12.80;;;5.37;;
19251;SDS011;9760;50.944;5.304;2022-11-20T16:38:58;9.93;;;5.77;;
19251;SDS011;9760;50.944;5.304;2022-11-20T16:41:26;14.80;;;5.30;;
19251;SDS011;9760;50.944;5.304;2022-11-20T16:43:54;12.93;;;5.50;;
19251;SDS011;9760;50.944;5.304;2022-11-20T16:46:25;14.53;;;6.23;;